^^
Saratoga-Weather Station Historical Data
Daily Summary for January 11, 2022 Units:  English    Metric   Both
Daily Weekly Monthly Yearly Custom
  High: Low: Average:
Temperature: 32.9 °F 28.6 °F 30.9 °F
Dew Point: 31.6 °F 27.5 °F 29.8 °F
Humidity: 97% 95% 96%
Wind Speed: 5mph 0mph 0.5mph
Wind Gust: 5mph - -
Wind- - SSE
Pressure: 30.6 in 30.4 in -
Precipitation: 0 in    
Historical Graphs
 
 
Tabular Data for January 11, 2022
Time Temperature Dew Point Pressure Wind Wind Speed Wind Gust Humidity Rainfall Rate (Hourly) solar
00:03 32.5 °F 31.5 °F 30.4 in Calm   2 mph 96% 0 in 0 W/m2
00:08 32.5 °F 31.5 °F 30.4 in Calm   1 mph 96% 0 in 0 W/m2
00:13 32.5 °F 31.5 °F 30.4 in ENE 0.9 mph 1 mph 96% 0 in 0 W/m2
00:18 32.5 °F 31.5 °F 30.4 in ENE 0.9 mph 2 mph 96% 0 in 0 W/m2
00:23 32.5 °F 31.5 °F 30.4 in ENE 0.9 mph 2 mph 96% 0 in 0 W/m2
00:28 32.5 °F 31.5 °F 30.4 in Calm     96% 0 in 0 W/m2
00:33 32.5 °F 31.5 °F 30.4 in Calm   1 mph 96% 0 in 0 W/m2
00:38 32.5 °F 31.5 °F 30.4 in Calm   1 mph 96% 0 in 0 W/m2
00:43 32.5 °F 31.5 °F 30.4 in Calm     96% 0 in 0 W/m2
00:49 32.5 °F 31.5 °F 30.4 in North 0.9 mph 2 mph 96% 0 in 0 W/m2
00:54 32.5 °F 31.5 °F 30.4 in NE 0.9 mph 1 mph 96% 0 in 0 W/m2
00:59 32.4 °F 31.3 °F 30.4 in Calm   2 mph 96% 0 in 0 W/m2
01:04 32.4 °F 31.3 °F 30.4 in Calm   1 mph 96% 0 in 0 W/m2
01:09 32.4 °F 31.3 °F 30.4 in NE 0.9 mph 2 mph 96% 0 in 0 W/m2
01:14 32.4 °F 31.3 °F 30.4 in Calm     96% 0 in 0 W/m2
01:19 32.4 °F 31.3 °F 30.4 in NNE 0.9 mph 2 mph 96% 0 in 0 W/m2
01:24 32.2 °F 31.1 °F 30.4 in Calm   2 mph 96% 0 in 0 W/m2
01:29 32.2 °F 31.1 °F 30.4 in NE 0.9 mph 1 mph 96% 0 in 0 W/m2
01:34 32.2 °F 31.1 °F 30.4 in Calm     96% 0 in 0 W/m2
01:39 32.2 °F 31.1 °F 30.4 in ENE 0.9 mph 2 mph 96% 0 in 0 W/m2
01:44 32 °F 30.9 °F 30.4 in Calm     96% 0 in 0 W/m2
01:49 32 °F 30.9 °F 30.4 in NNW 0.9 mph 3 mph 96% 0 in 0 W/m2
01:54 31.8 °F 30.7 °F 30.4 in Calm   2 mph 96% 0 in 0 W/m2
01:59 31.8 °F 30.7 °F 30.4 in North 0.9 mph 1 mph 96% 0 in 0 W/m2
02:04 31.8 °F 30.7 °F 30.4 in Calm   1 mph 96% 0 in 0 W/m2
02:09 31.8 °F 30.7 °F 30.4 in Calm   2 mph 96% 0 in 0 W/m2
02:14 32 °F 30.9 °F 30.4 in NE 0.9 mph 2 mph 96% 0 in 0 W/m2
02:19 32 °F 30.9 °F 30.4 in Calm   2 mph 96% 0 in 0 W/m2
02:24 32 °F 30.9 °F 30.4 in ESE 2.9 mph 3 mph 96% 0 in 0 W/m2
02:29 31.8 °F 30.7 °F 30.4 in ESE 0.9 mph 1 mph 96% 0 in 0 W/m2
02:34 31.8 °F 30.7 °F 30.4 in NE 0.9 mph 3 mph 96% 0 in 0 W/m2
02:39 31.8 °F 30.7 °F 30.4 in Calm   1 mph 96% 0 in 0 W/m2
02:44 31.8 °F 30.7 °F 30.4 in Calm   2 mph 96% 0 in 0 W/m2
02:49 31.8 °F 30.7 °F 30.4 in Calm   3 mph 96% 0 in 0 W/m2
02:54 31.8 °F 30.7 °F 30.4 in Calm   1 mph 96% 0 in 0 W/m2
02:59 31.8 °F 30.7 °F 30.4 in NE 0.9 mph 1 mph 96% 0 in 0 W/m2
03:04 31.6 °F 30.6 °F 30.4 in NE 4.9 mph 5 mph 96% 0 in 0 W/m2
03:09 31.6 °F 30.6 °F 30.4 in Calm   3 mph 96% 0 in 0 W/m2
03:14 31.5 °F 30.4 °F 30.4 in NE 5 mph 5 mph 96% 0 in 0 W/m2
03:19 31.5 °F 30.4 °F 30.4 in Calm   2 mph 96% 0 in 0 W/m2
03:24 31.5 °F 30.4 °F 30.4 in Calm   1 mph 96% 0 in 0 W/m2
03:29 31.5 °F 30.4 °F 30.4 in ENE 0.9 mph 2 mph 96% 0 in 0 W/m2
03:34 31.5 °F 30.4 °F 30.4 in Calm   1 mph 96% 0 in 0 W/m2
03:39 31.5 °F 30.4 °F 30.5 in Calm   4 mph 96% 0 in 0 W/m2
03:44 31.3 °F 30.2 °F 30.5 in Calm   2 mph 96% 0 in 0 W/m2
03:49 31.3 °F 30.2 °F 30.5 in Calm     96% 0 in 0 W/m2
03:54 31.3 °F 30.2 °F 30.5 in Calm   1 mph 96% 0 in 0 W/m2
03:59 31.3 °F 30.2 °F 30.5 in Calm   1 mph 96% 0 in 0 W/m2
04:04 31.3 °F 30.2 °F 30.5 in Calm     96% 0 in 0 W/m2
04:09 31.3 °F 30.2 °F 30.5 in Calm     96% 0 in 0 W/m2
04:14 31.3 °F 30.2 °F 30.5 in NE 0.9 mph 3 mph 96% 0 in 0 W/m2
04:19 31.3 °F 30.2 °F 30.5 in Calm   1 mph 96% 0 in 0 W/m2
04:24 31.3 °F 30.2 °F 30.5 in Calm     96% 0 in 0 W/m2
04:29 31.3 °F 30.2 °F 30.5 in Calm   2 mph 96% 0 in 0 W/m2
04:34 31.3 °F 30.2 °F 30.5 in Calm   3 mph 96% 0 in 0 W/m2
04:39 31.3 °F 30.2 °F 30.5 in Calm   1 mph 96% 0 in 0 W/m2
04:44 31.3 °F 30.2 °F 30.5 in NE 0.9 mph 3 mph 96% 0 in 0 W/m2
04:49 31.1 °F 30 °F 30.5 in Calm     96% 0 in 0 W/m2
04:54 30.9 °F 29.8 °F 30.5 in Calm   1 mph 96% 0 in 0 W/m2
04:59 31.1 °F 30 °F 30.5 in Calm   1 mph 96% 0 in 0 W/m2
05:04 30.9 °F 29.8 °F 30.5 in Calm   1 mph 96% 0 in 0 W/m2
05:09 30.9 °F 29.8 °F 30.5 in East 2 mph 2 mph 96% 0 in 0 W/m2
05:14 30.7 °F 29.7 °F 30.5 in ESE 4 mph 4 mph 96% 0 in 0 W/m2
05:19 30.7 °F 29.7 °F 30.5 in East 0.9 mph 2 mph 96% 0 in 0 W/m2
05:24 30.7 °F 29.7 °F 30.5 in Calm   3 mph 96% 0 in 0 W/m2
05:29 30.6 °F 29.5 °F 30.5 in Calm   1 mph 96% 0 in 0 W/m2
05:34 30.6 °F 29.5 °F 30.5 in East 0.9 mph 3 mph 96% 0 in 0 W/m2
05:39 30.6 °F 29.5 °F 30.5 in East 0.9 mph 1 mph 96% 0 in 0 W/m2
05:44 30.6 °F 29.5 °F 30.5 in NE 0.9 mph 3 mph 96% 0 in 0 W/m2
05:49 30.6 °F 29.5 °F 30.5 in NNE 2 mph 2 mph 96% 0 in 0 W/m2
05:54 30.6 °F 29.5 °F 30.5 in NW 0.9 mph 3 mph 96% 0 in 0 W/m2
05:59 30.4 °F 29.3 °F 30.5 in NNE 0.9 mph 1 mph 96% 0 in 0 W/m2
06:04 30.4 °F 29.3 °F 30.5 in Calm   1 mph 96% 0 in 0 W/m2
06:09 30.4 °F 29.3 °F 30.5 in Calm   2 mph 96% 0 in 0 W/m2
06:14 30.2 °F 29.1 °F 30.5 in East 0.9 mph 2 mph 96% 0 in 0 W/m2
06:19 30.4 °F 29.3 °F 30.5 in Calm   2 mph 96% 0 in 0 W/m2
06:24 30.2 °F 29.1 °F 30.5 in Calm     96% 0 in 0 W/m2
06:29 30.4 °F 29.3 °F 30.5 in ENE 0.9 mph 2 mph 96% 0 in 0 W/m2
06:34 30.4 °F 29.3 °F 30.5 in Calm     96% 0 in 0 W/m2
06:39 30.4 °F 29.3 °F 30.5 in Calm   2 mph 96% 0 in 0 W/m2
06:44 30.4 °F 29.3 °F 30.5 in ENE 0.9 mph 3 mph 96% 0 in 0 W/m2
06:49 30 °F 28.9 °F 30.5 in Calm     96% 0 in 0 W/m2
06:54 30 °F 28.9 °F 30.5 in ENE 0.9 mph 2 mph 96% 0 in 0 W/m2
06:59 29.8 °F 28.8 °F 30.5 in Calm     96% 0 in 0 W/m2
07:04 29.8 °F 28.8 °F 30.5 in Calm   1 mph 96% 0 in 0 W/m2
07:09 29.8 °F 28.8 °F 30.5 in NNE 2 mph 2 mph 96% 0 in 0 W/m2
07:14 29.8 °F 28.8 °F 30.5 in Calm   1 mph 96% 0 in 0 W/m2
07:19 30 °F 28.9 °F 30.5 in NE 2 mph 2 mph 96% 0 in 0 W/m2
07:24 30 °F 28.9 °F 30.5 in ENE 2 mph 2 mph 96% 0 in 0 W/m2
07:29 29.8 °F 28.8 °F 30.5 in Calm   2 mph 96% 0 in 0 W/m2
07:34 29.8 °F 28.8 °F 30.5 in Calm   3 mph 96% 0 in 0 W/m2
07:39 29.8 °F 28.8 °F 30.5 in East 0.9 mph 1 mph 96% 0 in 0 W/m2
07:44 29.8 °F 28.8 °F 30.5 in ENE 0.9 mph 3 mph 96% 0 in 0 W/m2
07:49 29.8 °F 28.8 °F 30.5 in Calm     96% 0 in 0 W/m2
07:54 29.7 °F 28.6 °F 30.5 in Calm   3 mph 96% 0 in 0 W/m2
07:59 29.7 °F 28.6 °F 30.5 in Calm   2 mph 96% 0 in 0 W/m2
08:04 29.7 °F 28.6 °F 30.5 in Calm   2 mph 96% 0 in 0 W/m2
08:09 29.7 °F 28.6 °F 30.5 in Calm   1 mph 96% 0 in 0 W/m2
08:15 29.7 °F 28.6 °F 30.5 in ENE 0.9 mph 2 mph 96% 0 in 0 W/m2
08:20 29.7 °F 28.6 °F 30.5 in ENE 0.9 mph 2 mph 96% 0 in 0 W/m2
08:25 29.7 °F 28.6 °F 30.5 in NE 0.9 mph 1 mph 96% 0 in 0 W/m2
08:30 29.5 °F 28.4 °F 30.5 in NE 2 mph 2 mph 96% 0 in 0 W/m2
08:35 29.5 °F 28.4 °F 30.5 in NE 0.9 mph 2 mph 96% 0 in 0 W/m2
08:40 29.5 °F 28.4 °F 30.5 in Calm   1 mph 96% 0 in 0 W/m2
08:45 29.5 °F 28.4 °F 30.5 in Calm   2 mph 96% 0 in 5 W/m2
08:50 29.5 °F 28.4 °F 30.5 in NE 0.9 mph 2 mph 96% 0 in 7 W/m2
08:55 29.5 °F 28.4 °F 30.5 in Calm   2 mph 96% 0 in 7 W/m2
09:00 29.5 °F 28.4 °F 30.5 in Calm   2 mph 96% 0 in 7 W/m2
09:05 29.5 °F 28.4 °F 30.5 in NW 0.9 mph 1 mph 96% 0 in 9 W/m2
09:10 29.3 °F 28.2 °F 30.5 in Calm   1 mph 96% 0 in 12 W/m2
09:15 29.3 °F 28.2 °F 30.5 in NW 0.9 mph 1 mph 96% 0 in 16 W/m2
09:20 29.1 °F 28 °F 30.5 in Calm     96% 0 in 19 W/m2
09:30 29.3 °F 28.6 °F 30.5 in NNW 0.9 mph 2 mph 97% 0 in 16 W/m2
09:35 29.3 °F 28.6 °F 30.5 in Calm   1 mph 97% 0 in 21 W/m2
09:40 29.3 °F 28.2 °F 30.5 in Calm     96% 0 in 25 W/m2
09:45 29.3 °F 28.2 °F 30.5 in Calm     96% 0 in 23 W/m2
09:50 29.5 °F 28.4 °F 30.5 in North 0.9 mph 1 mph 96% 0 in 33 W/m2
09:55 29.5 °F 28.4 °F 30.5 in Calm   3 mph 96% 0 in 28 W/m2
10:00 29.5 °F 28.4 °F 30.5 in Calm     96% 0 in 30 W/m2
10:05 29.5 °F 28.4 °F 30.5 in Calm   2 mph 96% 0 in 32 W/m2
10:10 29.5 °F 28.4 °F 30.5 in Calm   2 mph 96% 0 in 44 W/m2
10:15 29.5 °F 28.4 °F 30.5 in Calm   4 mph 96% 0 in 47 W/m2
10:20 29.5 °F 28.4 °F 30.5 in WNW 0.9 mph 3 mph 96% 0 in 35 W/m2
10:25 29.5 °F 28.4 °F 30.5 in Calm   2 mph 96% 0 in 33 W/m2
10:30 29.5 °F 28.4 °F 30.5 in Calm   3 mph 96% 0 in 46 W/m2
10:35 29.5 °F 28.4 °F 30.5 in North 0.9 mph 1 mph 96% 0 in 53 W/m2
10:40 29.5 °F 28.4 °F 30.5 in NE 0.9 mph 2 mph 96% 0 in 58 W/m2
10:45 29.7 °F 28.6 °F 30.5 in NE 0.9 mph 4 mph 96% 0 in 58 W/m2
10:50 29.7 °F 28.9 °F 30.5 in ENE 0.9 mph 2 mph 97% 0 in 67 W/m2
10:55 29.7 °F 28.9 °F 30.5 in East 0.9 mph 4 mph 97% 0 in 74 W/m2
11:00 29.8 °F 29.1 °F 30.5 in NE 0.9 mph 2 mph 97% 0 in 60 W/m2
11:05 29.8 °F 29.1 °F 30.5 in ESE 0.9 mph 3 mph 97% 0 in 47 W/m2
11:10 29.7 °F 28.9 °F 30.5 in ENE 2 mph 2 mph 97% 0 in 69 W/m2
11:15 29.8 °F 29.1 °F 30.5 in Calm   4 mph 97% 0 in 70 W/m2
11:20 29.7 °F 28.9 °F 30.5 in North 2 mph 3 mph 97% 0 in 69 W/m2
11:25 29.8 °F 29.1 °F 30.5 in North 0.9 mph 4 mph 97% 0 in 67 W/m2
11:30 29.8 °F 29.1 °F 30.5 in ENE 2 mph 2 mph 97% 0 in 69 W/m2
11:35 29.8 °F 29.1 °F 30.5 in NW 0.9 mph 2 mph 97% 0 in 67 W/m2
11:40 29.8 °F 29.1 °F 30.5 in NE 2 mph 2 mph 97% 0 in 77 W/m2
11:45 29.8 °F 29.1 °F 30.5 in Calm   2 mph 97% 0 in 81 W/m2
11:51 30 °F 29.3 °F 30.5 in NE 0.9 mph 2 mph 97% 0 in 83 W/m2
11:56 30.2 °F 29.5 °F 30.5 in Calm   1 mph 97% 0 in 107 W/m2
12:01 30.2 °F 29.5 °F 30.5 in Calm   1 mph 97% 0 in 107 W/m2
12:06 30.4 °F 29.7 °F 30.5 in Calm   2 mph 97% 0 in 97 W/m2
12:11 30.6 °F 29.8 °F 30.5 in Calm   2 mph 97% 0 in 95 W/m2
12:16 30.6 °F 29.8 °F 30.5 in Calm   2 mph 97% 0 in 111 W/m2
12:21 30.6 °F 29.8 °F 30.5 in Calm   2 mph 97% 0 in 116 W/m2
12:26 30.7 °F 30 °F 30.5 in Calm     97% 0 in 123 W/m2
12:31 30.9 °F 30.2 °F 30.5 in NNE 0.9 mph 2 mph 97% 0 in 95 W/m2
12:36 30.9 °F 30.2 °F 30.5 in Calm   1 mph 97% 0 in 91 W/m2
12:41 30.9 °F 30.2 °F 30.5 in Calm   1 mph 97% 0 in 148 W/m2
12:46 31.3 °F 30.6 °F 30.5 in WNW 2.9 mph 3 mph 97% 0 in 100 W/m2
12:51 31.1 °F 30.4 °F 30.5 in NW 0.9 mph 2 mph 97% 0 in 79 W/m2
12:56 31.1 °F 30.4 °F 30.5 in NW 2 mph 2 mph 97% 0 in 86 W/m2
13:01 31.3 °F 30.6 °F 30.5 in Calm     97% 0 in 91 W/m2
13:06 31.3 °F 30.6 °F 30.5 in NW 2 mph 2 mph 97% 0 in 105 W/m2
13:11 31.3 °F 30.6 °F 30.5 in North 0.9 mph 3 mph 97% 0 in 128 W/m2
13:16 31.3 °F 30.6 °F 30.5 in Calm   1 mph 97% 0 in 95 W/m2
13:21 31.5 °F 30.7 °F 30.5 in NNW 0.9 mph 3 mph 97% 0 in 146 W/m2
13:26 31.6 °F 30.9 °F 30.5 in NE 0.9 mph 2 mph 97% 0 in 155 W/m2
13:31 31.8 °F 30.7 °F 30.5 in NE 0.9 mph 2 mph 96% 0 in 125 W/m2
13:36 31.8 °F 31.1 °F 30.5 in Calm     97% 0 in 113 W/m2
13:41 32 °F 31.3 °F 30.5 in Calm     97% 0 in 111 W/m2
13:46 31.8 °F 31.1 °F 30.5 in Calm   2 mph 97% 0 in 98 W/m2
13:51 32 °F 30.9 °F 30.5 in Calm   2 mph 96% 0 in 72 W/m2
13:56 32 °F 30.9 °F 30.5 in Calm   2 mph 96% 0 in 67 W/m2
14:01 32.2 °F 31.1 °F 30.5 in Calm     96% 0 in 125 W/m2
14:06 32.2 °F 31.1 °F 30.5 in Calm   2 mph 96% 0 in 113 W/m2
14:11 32.4 °F 31.3 °F 30.5 in Calm   2 mph 96% 0 in 118 W/m2
14:16 32.4 °F 31.3 °F 30.5 in Calm     96% 0 in 90 W/m2
14:21 32.5 °F 31.5 °F 30.5 in NE 0.9 mph 2 mph 96% 0 in 62 W/m2
14:26 32.5 °F 31.5 °F 30.5 in Calm   1 mph 96% 0 in 77 W/m2
14:31 32.5 °F 31.5 °F 30.5 in Calm     96% 0 in 86 W/m2
14:36 32.7 °F 31.6 °F 30.5 in Calm     96% 0 in 70 W/m2
14:41 32.7 °F 31.6 °F 30.5 in Calm   2 mph 96% 0 in 60 W/m2
14:46 32.7 °F 31.6 °F 30.5 in Calm   2 mph 96% 0 in 49 W/m2
14:51 32.9 °F 31.6 °F 30.5 in Calm     95% 0 in 39 W/m2
14:56 32.9 °F 31.6 °F 30.5 in Calm   2 mph 95% 0 in 35 W/m2
15:01 32.7 °F 31.5 °F 30.5 in Calm     95% 0 in 32 W/m2
15:06 32.7 °F 31.5 °F 30.5 in Calm     95% 0 in 30 W/m2
15:11 32.7 °F 31.5 °F 30.5 in Calm     95% 0 in 30 W/m2
15:16 32.5 °F 31.3 °F 30.5 in Calm     95% 0 in 28 W/m2
15:21 32.5 °F 31.3 °F 30.5 in Calm     95% 0 in 28 W/m2
15:26 32.5 °F 31.3 °F 30.5 in Calm     95% 0 in 26 W/m2
15:31 32.5 °F 31.3 °F 30.5 in Calm     95% 0 in 25 W/m2
15:36 32.5 °F 31.3 °F 30.5 in Calm     95% 0 in 25 W/m2
15:41 32.4 °F 31.1 °F 30.5 in Calm     95% 0 in 25 W/m2
15:46 32.4 °F 31.1 °F 30.5 in Calm     95% 0 in 23 W/m2
15:51 32.4 °F 31.1 °F 30.5 in Calm   2 mph 95% 0 in 23 W/m2
15:56 32.4 °F 31.1 °F 30.5 in Calm     95% 0 in 23 W/m2
16:01 32.4 °F 31.1 °F 30.5 in Calm     95% 0 in 23 W/m2
16:06 32.4 °F 31.1 °F 30.5 in Calm     95% 0 in 21 W/m2
16:11 32.4 °F 31.1 °F 30.5 in Calm   1 mph 95% 0 in 19 W/m2
16:16 32.4 °F 31.1 °F 30.5 in Calm   2 mph 95% 0 in 18 W/m2
16:21 32.4 °F 31.1 °F 30.5 in East 0.9 mph 1 mph 95% 0 in 16 W/m2
16:26 32.4 °F 31.1 °F 30.5 in Calm     95% 0 in 14 W/m2
16:31 32.4 °F 31.1 °F 30.5 in Calm     95% 0 in 16 W/m2
16:36 32.2 °F 30.9 °F 30.5 in Calm     95% 0 in 16 W/m2
16:41 32.2 °F 30.9 °F 30.5 in Calm     95% 0 in 11 W/m2
16:46 32.2 °F 30.9 °F 30.5 in Calm     95% 0 in 9 W/m2
16:51 32 °F 30.7 °F 30.5 in Calm     95% 0 in 5 W/m2
16:56 32 °F 30.7 °F 30.5 in East 0.9 mph 3 mph 95% 0 in 5 W/m2
17:01 32.2 °F 30.9 °F 30.5 in Calm   1 mph 95% 0 in 0 W/m2
17:06 32.2 °F 30.9 °F 30.5 in Calm   3 mph 95% 0 in 0 W/m2
17:12 32.2 °F 30.9 °F 30.5 in Calm     95% 0 in 0 W/m2
17:17 32.2 °F 30.9 °F 30.5 in Calm   1 mph 95% 0 in 0 W/m2
17:22 32.2 °F 31.1 °F 30.5 in Calm     96% 0 in 0 W/m2
17:27 32.2 °F 31.1 °F 30.5 in Calm     96% 0 in 0 W/m2
17:32 32.2 °F 31.1 °F 30.5 in Calm     96% 0 in 0 W/m2
17:37 32.2 °F 31.1 °F 30.5 in Calm     96% 0 in 0 W/m2
17:42 32.2 °F 31.1 °F 30.5 in Calm     96% 0 in 0 W/m2
17:47 32.2 °F 31.1 °F 30.5 in Calm     96% 0 in 0 W/m2
17:52 32.2 °F 31.1 °F 30.5 in East 0.9 mph 2 mph 96% 0 in 0 W/m2
17:57 32.2 °F 31.1 °F 30.5 in Calm     96% 0 in 0 W/m2
18:02 32.2 °F 31.1 °F 30.5 in Calm   2 mph 96% 0 in 0 W/m2
18:07 32 °F 30.9 °F 30.5 in NE 2 mph 2 mph 96% 0 in 0 W/m2
18:12 31.8 °F 30.7 °F 30.5 in ENE 2 mph 2 mph 96% 0 in 0 W/m2
18:17 31.8 °F 30.6 °F 30.5 in East 0.9 mph 2 mph 95% 0 in 0 W/m2
18:22 31.6 °F 30.4 °F 30.5 in ENE 2 mph 3 mph 95% 0 in 0 W/m2
18:27 31.6 °F 30.6 °F 30.5 in East 2 mph 2 mph 96% 0 in 0 W/m2
18:32 31.5 °F 30.4 °F 30.5 in ESE 0.9 mph 3 mph 96% 0 in 0 W/m2
18:37 31.5 °F 30.4 °F 30.5 in Calm     96% 0 in 0 W/m2
18:42 31.3 °F 30.2 °F 30.5 in Calm     96% 0 in 0 W/m2
18:47 31.3 °F 30.2 °F 30.5 in Calm     96% 0 in 0 W/m2
18:52 31.3 °F 30.2 °F 30.5 in ENE 2 mph 3 mph 96% 0 in 0 W/m2
18:57 31.3 °F 30.2 °F 30.5 in Calm     96% 0 in 0 W/m2
19:02 31.3 °F 30.2 °F 30.5 in Calm   3 mph 96% 0 in 0 W/m2
19:07 31.1 °F 30 °F 30.5 in NE 2 mph 4 mph 96% 0 in 0 W/m2
19:12 30.9 °F 29.8 °F 30.5 in ENE 0.9 mph 3 mph 96% 0 in 0 W/m2
19:17 30.7 °F 29.7 °F 30.5 in ENE 2 mph 2 mph 96% 0 in 0 W/m2
19:22 30.7 °F 29.7 °F 30.5 in ESE 0.9 mph 2 mph 96% 0 in 0 W/m2
19:27 30.6 °F 29.5 °F 30.6 in Calm     96% 0 in 0 W/m2
19:32 30.6 °F 29.5 °F 30.6 in Calm   1 mph 96% 0 in 0 W/m2
19:37 30.6 °F 29.5 °F 30.6 in Calm   1 mph 96% 0 in 0 W/m2
19:42 30.6 °F 29.5 °F 30.6 in Calm   1 mph 96% 0 in 0 W/m2
19:47 30.6 °F 29.5 °F 30.6 in Calm     96% 0 in 0 W/m2
19:52 30.4 °F 29.3 °F 30.6 in North 2 mph 2 mph 96% 0 in 0 W/m2
19:57 30.4 °F 29.3 °F 30.6 in ENE 0.9 mph 2 mph 96% 0 in 0 W/m2
20:02 30.4 °F 29.3 °F 30.6 in Calm   2 mph 96% 0 in 0 W/m2
20:07 30.4 °F 29.3 °F 30.6 in North 0.9 mph 4 mph 96% 0 in 0 W/m2
20:12 30.2 °F 29.1 °F 30.6 in Calm     96% 0 in 0 W/m2
20:17 30.2 °F 29.1 °F 30.6 in NNE 0.9 mph 4 mph 96% 0 in 0 W/m2
20:22 30 °F 28.9 °F 30.6 in Calm   1 mph 96% 0 in 0 W/m2
20:27 30 °F 28.9 °F 30.6 in North 0.9 mph 2 mph 96% 0 in 0 W/m2
20:32 29.8 °F 28.8 °F 30.6 in NNW 0.9 mph 1 mph 96% 0 in 0 W/m2
20:37 29.8 °F 28.8 °F 30.6 in North 2 mph 2 mph 96% 0 in 0 W/m2
20:42 29.8 °F 28.8 °F 30.6 in Calm   2 mph 96% 0 in 0 W/m2
20:47 29.8 °F 28.8 °F 30.6 in NW 2 mph 2 mph 96% 0 in 0 W/m2
20:52 29.8 °F 28.8 °F 30.6 in NW 0.9 mph 2 mph 96% 0 in 0 W/m2
20:57 29.8 °F 28.8 °F 30.6 in NW 0.9 mph 3 mph 96% 0 in 0 W/m2
21:02 29.8 °F 28.8 °F 30.6 in NW 0.9 mph 2 mph 96% 0 in 0 W/m2
21:07 29.7 °F 28.6 °F 30.6 in Calm   2 mph 96% 0 in 0 W/m2
21:12 29.7 °F 28.6 °F 30.6 in Calm   1 mph 96% 0 in 0 W/m2
21:17 29.7 °F 28.6 °F 30.6 in Calm   2 mph 96% 0 in 0 W/m2
21:22 29.5 °F 28.4 °F 30.6 in North 0.9 mph 1 mph 96% 0 in 0 W/m2
21:27 29.5 °F 28.4 °F 30.6 in North 0.9 mph 1 mph 96% 0 in 0 W/m2
21:32 29.5 °F 28.4 °F 30.6 in North 2 mph 2 mph 96% 0 in 0 W/m2
21:37 29.5 °F 28.4 °F 30.6 in Calm   1 mph 96% 0 in 0 W/m2
21:42 29.5 °F 28.4 °F 30.6 in North 0.9 mph 2 mph 96% 0 in 0 W/m2
21:47 29.7 °F 28.6 °F 30.6 in NW 0.9 mph 2 mph 96% 0 in 0 W/m2
21:52 29.7 °F 28.6 °F 30.6 in WNW 2 mph 2 mph 96% 0 in 0 W/m2
21:57 29.7 °F 28.6 °F 30.6 in Calm   1 mph 96% 0 in 0 W/m2
22:02 29.7 °F 28.6 °F 30.6 in Calm     96% 0 in 0 W/m2
22:07 29.7 °F 28.6 °F 30.6 in Calm   1 mph 96% 0 in 0 W/m2
22:12 29.5 °F 28.4 °F 30.6 in NE 0.9 mph 2 mph 96% 0 in 0 W/m2
22:17 29.5 °F 28.4 °F 30.6 in Calm     96% 0 in 0 W/m2
22:22 29.5 °F 28.4 °F 30.6 in Calm     96% 0 in 0 W/m2
22:27 29.5 °F 28.4 °F 30.6 in Calm   1 mph 96% 0 in 0 W/m2
22:32 29.3 °F 28.2 °F 30.6 in NNW 0.9 mph 2 mph 96% 0 in 0 W/m2
22:37 29.3 °F 28.2 °F 30.6 in Calm   2 mph 96% 0 in 0 W/m2
22:42 29.1 °F 28 °F 30.6 in Calm   1 mph 96% 0 in 0 W/m2
22:47 29.1 °F 28 °F 30.6 in East 0.9 mph 1 mph 96% 0 in 0 W/m2
22:52 29.3 °F 28.2 °F 30.6 in Calm   1 mph 96% 0 in 0 W/m2
22:57 29.1 °F 28 °F 30.6 in ENE 0.9 mph 1 mph 96% 0 in 0 W/m2
23:02 29.1 °F 28 °F 30.6 in ENE 0.9 mph 1 mph 96% 0 in 0 W/m2
23:07 29.1 °F 28 °F 30.6 in North 0.9 mph 2 mph 96% 0 in 0 W/m2
23:12 29.1 °F 28 °F 30.6 in North 0.9 mph 2 mph 96% 0 in 0 W/m2
23:18 29.1 °F 28.4 °F 30.6 in Calm   3 mph 97% 0 in 0 W/m2
23:23 28.9 °F 27.9 °F 30.6 in NW 2 mph 2 mph 96% 0 in 0 W/m2
23:28 28.8 °F 27.7 °F 30.6 in WNW 0.9 mph 3 mph 96% 0 in 0 W/m2
23:33 28.8 °F 27.7 °F 30.6 in West 0.9 mph 2 mph 96% 0 in 0 W/m2
23:38 28.6 °F 27.5 °F 30.6 in West 2 mph 2 mph 96% 0 in 0 W/m2
23:43 28.6 °F 27.5 °F 30.6 in WNW 0.9 mph 1 mph 96% 0 in 0 W/m2
23:48 28.6 °F 27.5 °F 30.6 in Calm   1 mph 96% 0 in 0 W/m2
23:53 28.6 °F 27.9 °F 30.6 in NW 2 mph 3 mph 97% 0 in 0 W/m2
23:58 28.6 °F 27.5 °F 30.6 in Calm     96% 0 in 0 W/m2
Juneau County Weather
Compliments of Weather Underground - 4 mb